Hallsville, Missouri
Current Conditions -  °F | °C
As of 12:54 PM on Thursday 27 Nov 2014 (Local Time) from KCOU Reporting Station
Scattered Clouds Scattered Clouds  
Wind Chill: 27°   Ceiling: Unl
Heat Index: 34°   Visibility: 10mi
Dew Point: 22°   Wind: 8mph
Humidity: 61%   Direction: 310°NW
Pressure: 30.46"   Gusts: NA
Location:  39.12°N, 92.22°W
Report Text: KCOU 271854Z 31007KT 10SM FEW028 SCT080 01/M06 A3046 RMK AO2 SLP323 T00111056
Loading
Personal Weather Stations






























Interactive Weather Map New forecast layout! Learn more

10-Day Weather Forecast

Advertisements
Track Severe Weather on mobile